sensor_id;sensor_type;location;lat;lon;timestamp;pressure;altitude;pressure_sealevel;temperature;humidity
46942;BME280;32676;52.630;4.896;2023-03-23T00:01:18;101681.88;;;12.02;83.98
46942;BME280;32676;52.630;4.896;2023-03-23T00:03:45;101682.66;;;12.05;83.34
46942;BME280;32676;52.630;4.896;2023-03-23T00:06:12;101689.66;;;12.08;83.54
46942;BME280;32676;52.630;4.896;2023-03-23T00:08:42;101705.38;;;12.11;83.40
46942;BME280;32676;52.630;4.896;2023-03-23T00:11:10;101706.19;;;12.13;83.45
46942;BME280;32676;52.630;4.896;2023-03-23T00:13:39;101714.94;;;12.15;83.25
46942;BME280;32676;52.630;4.896;2023-03-23T00:16:06;101728.94;;;12.17;83.16
46942;BME280;32676;52.630;4.896;2023-03-23T00:18:44;101730.66;;;12.18;83.26
46942;BME280;32676;52.630;4.896;2023-03-23T00:21:10;101730.66;;;12.18;83.14
46942;BME280;32676;52.630;4.896;2023-03-23T00:23:37;101732.41;;;12.19;82.95
46942;BME280;32676;52.630;4.896;2023-03-23T00:26:04;101725.38;;;12.18;83.03
46942;BME280;32676;52.630;4.896;2023-03-23T00:28:30;101734.22;;;12.17;82.74
46942;BME280;32676;52.630;4.896;2023-03-23T00:30:57;101725.38;;;12.18;82.74
46942;BME280;32676;52.630;4.896;2023-03-23T00:33:24;101739.38;;;12.20;82.57
46942;BME280;32676;52.630;4.896;2023-03-23T00:35:53;101753.31;;;12.25;82.46
46942;BME280;32676;52.630;4.896;2023-03-23T00:38:20;101760.34;;;12.26;82.46
46942;BME280;32676;52.630;4.896;2023-03-23T00:40:46;101760.34;;;12.26;82.03
46942;BME280;32676;52.630;4.896;2023-03-23T00:43:13;101762.06;;;12.27;82.13
46942;BME280;32676;52.630;4.896;2023-03-23T00:45:40;101755.06;;;12.26;81.59
46942;BME280;32676;52.630;4.896;2023-03-23T00:48:06;101763.78;;;12.28;81.87
46942;BME280;32676;52.630;4.896;2023-03-23T00:50:33;101767.25;;;12.31;81.44
46942;BME280;32676;52.630;4.896;2023-03-23T00:53:00;101758.53;;;12.28;81.32
46942;BME280;32676;52.630;4.896;2023-03-23T00:55:27;101757.59;;;12.29;81.42
46942;BME280;32676;52.630;4.896;2023-03-23T00:57:55;101761.97;;;12.31;81.19
46942;BME280;32676;52.630;4.896;2023-03-23T01:00:22;101758.53;;;12.28;81.12
46942;BME280;32676;52.630;4.896;2023-03-23T01:02:48;101756.75;;;12.29;80.82
46942;BME280;32676;52.630;4.896;2023-03-23T01:05:16;101759.34;;;12.31;81.08
46942;BME280;32676;52.630;4.896;2023-03-23T01:07:42;101769.84;;;12.32;80.85
46942;BME280;32676;52.630;4.896;2023-03-23T01:10:11;101761.97;;;12.31;80.20
46942;BME280;32676;52.630;4.896;2023-03-23T01:12:41;101764.59;;;12.32;80.38
46942;BME280;32676;52.630;4.896;2023-03-23T01:15:07;101751.47;;;12.29;80.07
46942;BME280;32676;52.630;4.896;2023-03-23T01:17:34;101751.44;;;12.31;79.79
46942;BME280;32676;52.630;4.896;2023-03-23T01:20:00;101754.06;;;12.31;79.96
46942;BME280;32676;52.630;4.896;2023-03-23T01:22:29;101761.91;;;12.34;79.70
46942;BME280;32676;52.630;4.896;2023-03-23T01:24:55;101778.56;;;12.36;79.66
46942;BME280;32676;52.630;4.896;2023-03-23T01:27:23;101789.03;;;12.39;79.57
46942;BME280;32676;52.630;4.896;2023-03-23T01:29:49;101800.34;;;12.42;79.48
46942;BME280;32676;52.630;4.896;2023-03-23T01:32:16;101788.13;;;12.40;79.44
46942;BME280;32676;52.630;4.896;2023-03-23T01:34:42;101793.31;;;12.43;79.37
46942;BME280;32676;52.630;4.896;2023-03-23T01:37:09;101803.84;;;12.44;79.39
46942;BME280;32676;52.630;4.896;2023-03-23T01:39:35;101809.00;;;12.47;79.11
46942;BME280;32676;52.630;4.896;2023-03-23T01:42:02;101811.66;;;12.46;79.01
46942;BME280;32676;52.630;4.896;2023-03-23T01:47:15;101806.41;;;12.46;79.14
46942;BME280;32676;52.630;4.896;2023-03-23T01:49:42;101790.66;;;12.44;78.85
46942;BME280;32676;52.630;4.896;2023-03-23T01:52:11;101773.41;;;12.29;78.66
46942;BME280;32676;52.630;4.896;2023-03-23T01:54:42;101782.78;;;12.43;78.47
46942;BME280;32676;52.630;4.896;2023-03-23T01:57:11;101775.75;;;12.42;78.63
46942;BME280;32676;52.630;4.896;2023-03-23T01:59:38;101785.41;;;12.43;78.81
46942;BME280;32676;52.630;4.896;2023-03-23T02:02:08;101800.25;;;12.47;78.73
46942;BME280;32676;52.630;4.896;2023-03-23T02:04:37;101800.25;;;12.47;78.63
46942;BME280;32676;52.630;4.896;2023-03-23T02:07:03;101793.22;;;12.46;78.56
46942;BME280;32676;52.630;4.896;2023-03-23T02:09:30;101788.84;;;12.46;78.75
46942;BME280;32676;52.630;4.896;2023-03-23T02:11:56;101782.69;;;12.46;78.26
46942;BME280;32676;52.630;4.896;2023-03-23T02:14:23;101779.22;;;12.44;78.58
46942;BME280;32676;52.630;4.896;2023-03-23T02:16:51;101768.78;;;12.41;78.45
46942;BME280;32676;52.630;4.896;2023-03-23T02:19:25;101760.88;;;12.41;78.50
46942;BME280;32676;52.630;4.896;2023-03-23T02:25:00;101725.03;;;12.34;79.21
46942;BME280;32676;52.630;4.896;2023-03-23T02:30:18;101690.06;;;12.25;79.65
46942;BME280;32676;52.630;4.896;2023-03-23T02:35:29;101628.97;;;12.11;79.60
46942;BME280;32676;52.630;4.896;2023-03-23T02:37:58;101602.78;;;12.05;79.80
46942;BME280;32676;52.630;4.896;2023-03-23T02:40:27;101577.38;;;12.02;80.99
46942;BME280;32676;52.630;4.896;2023-03-23T02:42:56;101566.97;;;11.98;81.63
46942;BME280;32676;52.630;4.896;2023-03-23T02:45:24;101548.59;;;11.95;82.35
46942;BME280;32676;52.630;4.896;2023-03-23T02:47:53;101523.25;;;11.89;82.32
46942;BME280;32676;52.630;4.896;2023-03-23T02:50:21;101501.41;;;11.85;82.67
46942;BME280;32676;52.630;4.896;2023-03-23T02:52:50;101497.97;;;11.83;83.10
46942;BME280;32676;52.630;4.896;2023-03-23T02:55:18;101502.28;;;11.86;83.23
46942;BME280;32676;52.630;4.896;2023-03-23T02:57:45;101517.19;;;11.87;83.63
46942;BME280;32676;52.630;4.896;2023-03-23T03:00:13;101511.91;;;11.87;83.92
46942;BME280;32676;52.630;4.896;2023-03-23T03:02:40;101492.69;;;11.83;84.18
46942;BME280;32676;52.630;4.896;2023-03-23T03:05:10;101468.25;;;11.78;83.99
46942;BME280;32676;52.630;4.896;2023-03-23T03:07:44;101466.53;;;11.77;82.90
46942;BME280;32676;52.630;4.896;2023-03-23T03:10:18;101457.81;;;11.75;82.78
46942;BME280;32676;52.630;4.896;2023-03-23T03:12:51;101440.34;;;11.71;82.78
46942;BME280;32676;52.630;4.896;2023-03-23T03:15:23;101437.72;;;11.71;82.88
46942;BME280;32676;52.630;4.896;2023-03-23T03:17:53;101440.34;;;11.71;83.30
46942;BME280;32676;52.630;4.896;2023-03-23T03:20:22;101453.44;;;11.74;82.94
46942;BME280;32676;52.630;4.896;2023-03-23T03:22:50;101449.94;;;11.75;82.94
46942;BME280;32676;52.630;4.896;2023-03-23T03:25:19;101441.19;;;11.73;82.61
46942;BME280;32676;52.630;4.896;2023-03-23T03:27:45;101443.81;;;11.73;82.59
46942;BME280;32676;52.630;4.896;2023-03-23T03:30:14;101438.53;;;11.73;82.33
46942;BME280;32676;52.630;4.896;2023-03-23T03:32:43;101445.56;;;11.74;82.22
46942;BME280;32676;52.630;4.896;2023-03-23T03:35:11;101440.28;;;11.74;81.83
46942;BME280;32676;52.630;4.896;2023-03-23T03:37:38;101419.28;;;11.71;82.16
46942;BME280;32676;52.630;4.896;2023-03-23T03:40:05;101414.13;;;11.68;81.97
46942;BME280;32676;52.630;4.896;2023-03-23T03:42:37;101410.63;;;11.67;82.07
46942;BME280;32676;52.630;4.896;2023-03-23T03:45:04;101388.03;;;11.59;82.16
46942;BME280;32676;52.630;4.896;2023-03-23T03:47:30;101396.63;;;11.65;81.94
46942;BME280;32676;52.630;4.896;2023-03-23T03:49:57;101393.16;;;11.65;82.15
46942;BME280;32676;52.630;4.896;2023-03-23T03:52:23;101388.81;;;11.62;81.97
46942;BME280;32676;52.630;4.896;2023-03-23T03:54:49;101375.72;;;11.61;81.77
46942;BME280;32676;52.630;4.896;2023-03-23T03:57:16;101364.34;;;11.59;81.14
46942;BME280;32676;52.630;4.896;2023-03-23T03:59:43;101354.81;;;11.55;81.03
46942;BME280;32676;52.630;4.896;2023-03-23T04:02:10;101351.28;;;11.56;81.00
46942;BME280;32676;52.630;4.896;2023-03-23T04:04:39;101334.72;;;11.52;80.80
46942;BME280;32676;52.630;4.896;2023-03-23T04:07:06;101338.25;;;11.51;80.47
46942;BME280;32676;52.630;4.896;2023-03-23T04:09:35;101339.06;;;11.53;80.23
46942;BME280;32676;52.630;4.896;2023-03-23T04:12:02;101332.13;;;11.50;79.74
46942;BME280;32676;52.630;4.896;2023-03-23T04:14:28;101320.75;;;11.50;79.57
46942;BME280;32676;52.630;4.896;2023-03-23T04:16:56;101325.97;;;11.51;79.91
46942;BME280;32676;52.630;4.896;2023-03-23T04:19:24;101323.38;;;11.50;79.55
46942;BME280;32676;52.630;4.896;2023-03-23T04:21:50;101305.06;;;11.45;79.38
46942;BME280;32676;52.630;4.896;2023-03-23T04:24:17;101286.72;;;11.42;79.25
46942;BME280;32676;52.630;4.896;2023-03-23T04:26:46;101272.75;;;11.40;79.65
46942;BME280;32676;52.630;4.896;2023-03-23T04:29:12;101268.44;;;11.39;79.47
46942;BME280;32676;52.630;4.896;2023-03-23T04:31:40;101261.47;;;11.37;79.50
46942;BME280;32676;52.630;4.896;2023-03-23T04:34:11;101251.91;;;11.34;79.40
46942;BME280;32676;52.630;4.896;2023-03-23T04:36:38;101244.91;;;11.33;80.10
46942;BME280;32676;52.630;4.896;2023-03-23T04:39:05;101234.38;;;11.33;80.10
46942;BME280;32676;52.630;4.896;2023-03-23T04:41:35;101230.94;;;11.31;80.19
46942;BME280;32676;52.630;4.896;2023-03-23T04:44:01;101215.25;;;11.28;80.26
46942;BME280;32676;52.630;4.896;2023-03-23T04:46:28;101220.53;;;11.28;80.60
46942;BME280;32676;52.630;4.896;2023-03-23T04:48:55;101222.22;;;11.29;80.30
46942;BME280;32676;52.630;4.896;2023-03-23T04:51:27;101206.53;;;11.26;80.47
46942;BME280;32676;52.630;4.896;2023-03-23T04:53:54;101182.22;;;11.18;80.48
46942;BME280;32676;52.630;4.896;2023-03-23T04:56:21;101165.59;;;11.17;80.65
46942;BME280;32676;52.630;4.896;2023-03-23T04:58:47;101155.09;;;11.16;80.70
46942;BME280;32676;52.630;4.896;2023-03-23T05:01:14;101142.03;;;11.12;80.91
46942;BME280;32676;52.630;4.896;2023-03-23T05:03:42;101142.03;;;11.12;80.99
46942;BME280;32676;52.630;4.896;2023-03-23T05:06:09;101130.75;;;11.09;81.14
46942;BME280;32676;52.630;4.896;2023-03-23T05:08:37;101121.19;;;11.06;81.24
46942;BME280;32676;52.630;4.896;2023-03-23T05:11:04;101115.94;;;11.06;80.91
46942;BME280;32676;52.630;4.896;2023-03-23T05:13:31;101110.66;;;11.06;81.02
46942;BME280;32676;52.630;4.896;2023-03-23T05:15:58;101100.25;;;11.03;81.15
46942;BME280;32676;52.630;4.896;2023-03-23T05:18:24;101108.03;;;11.06;80.99
46942;BME280;32676;52.630;4.896;2023-03-23T05:20:51;101110.66;;;11.06;80.54
46942;BME280;32676;52.630;4.896;2023-03-23T05:23:17;101101.03;;;11.05;80.41
46942;BME280;32676;52.630;4.896;2023-03-23T05:25:51;101093.25;;;11.02;80.12
46942;BME280;32676;52.630;4.896;2023-03-23T05:28:18;101081.94;;;10.99;80.24
46942;BME280;32676;52.630;4.896;2023-03-23T05:30:47;101074.13;;;10.97;80.36
46942;BME280;32676;52.630;4.896;2023-03-23T05:33:13;101060.16;;;10.95;80.23
46942;BME280;32676;52.630;4.896;2023-03-23T05:35:39;101073.22;;;10.98;80.43
46942;BME280;32676;52.630;4.896;2023-03-23T05:38:06;101057.59;;;10.93;80.50
46942;BME280;32676;52.630;4.896;2023-03-23T05:40:33;101053.19;;;10.94;80.37
46942;BME280;32676;52.630;4.896;2023-03-23T05:43:00;101045.38;;;10.91;80.62
46942;BME280;32676;52.630;4.896;2023-03-23T05:45:26;101030.53;;;10.90;80.66
46942;BME280;32676;52.630;4.896;2023-03-23T05:47:53;101024.47;;;10.88;80.76
46942;BME280;32676;52.630;4.896;2023-03-23T05:50:19;101031.41;;;10.89;80.91
46942;BME280;32676;52.630;4.896;2023-03-23T05:52:46;101038.38;;;10.91;80.44
46942;BME280;32676;52.630;4.896;2023-03-23T05:55:13;101037.50;;;10.91;80.62
46942;BME280;32676;52.630;4.896;2023-03-23T05:57:40;101034.91;;;10.89;80.23
46942;BME280;32676;52.630;4.896;2023-03-23T06:00:09;101007.84;;;10.86;80.22
46942;BME280;32676;52.630;4.896;2023-03-23T06:02:45;101000.06;;;10.83;80.65
46942;BME280;32676;52.630;4.896;2023-03-23T06:05:12;100978.31;;;10.78;80.26
46942;BME280;32676;52.630;4.896;2023-03-23T06:07:38;100967.00;;;10.75;80.81
46942;BME280;32676;52.630;4.896;2023-03-23T06:10:05;100959.13;;;10.75;80.73
46942;BME280;32676;52.630;4.896;2023-03-23T06:12:34;100953.09;;;10.72;80.75
46942;BME280;32676;52.630;4.896;2023-03-23T06:15:01;100943.50;;;10.69;80.82
46942;BME280;32676;52.630;4.896;2023-03-23T06:17:30;100945.25;;;10.70;80.64
46942;BME280;32676;52.630;4.896;2023-03-23T06:19:56;100953.94;;;10.72;80.58
46942;BME280;32676;52.630;4.896;2023-03-23T06:22:22;100955.69;;;10.73;80.51
46942;BME280;32676;52.630;4.896;2023-03-23T06:24:49;100973.06;;;10.78;80.21
46942;BME280;32676;52.630;4.896;2023-03-23T06:27:15;100966.06;;;10.76;80.06
46942;BME280;32676;52.630;4.896;2023-03-23T06:29:42;100964.38;;;10.75;80.18
46942;BME280;32676;52.630;4.896;2023-03-23T06:32:09;100968.69;;;10.76;80.29
46942;BME280;32676;52.630;4.896;2023-03-23T06:34:38;100973.06;;;10.78;80.72
46942;BME280;32676;52.630;4.896;2023-03-23T06:37:05;100963.44;;;10.76;80.92
46942;BME280;32676;52.630;4.896;2023-03-23T06:39:31;100950.41;;;10.73;80.85
46942;BME280;32676;52.630;4.896;2023-03-23T06:41:58;100944.28;;;10.73;80.91
46942;BME280;32676;52.630;4.896;2023-03-23T06:44:25;100924.31;;;10.67;81.15
46942;BME280;32676;52.630;4.896;2023-03-23T06:46:51;100933.00;;;10.69;80.96
46942;BME280;32676;52.630;4.896;2023-03-23T06:49:17;100931.31;;;10.68;81.17
46942;BME280;32676;52.630;4.896;2023-03-23T06:51:45;100939.09;;;10.71;81.29
46942;BME280;32676;52.630;4.896;2023-03-23T06:54:11;100940.00;;;10.70;81.29
46942;BME280;32676;52.630;4.896;2023-03-23T06:56:38;100935.59;;;10.71;81.29
46942;BME280;32676;52.630;4.896;2023-03-23T06:59:04;100946.88;;;10.74;81.03
46942;BME280;32676;52.630;4.896;2023-03-23T07:01:31;100973.88;;;10.80;81.37
46942;BME280;32676;52.630;4.896;2023-03-23T07:03:57;100984.31;;;10.83;81.47
46942;BME280;32676;52.630;4.896;2023-03-23T07:06:23;101003.44;;;10.88;81.11
46942;BME280;32676;52.630;4.896;2023-03-23T07:08:52;101010.34;;;10.90;81.02
46942;BME280;32676;52.630;4.896;2023-03-23T07:11:18;101029.56;;;10.92;80.81
46942;BME280;32676;52.630;4.896;2023-03-23T07:13:45;101030.41;;;10.93;80.53
46942;BME280;32676;52.630;4.896;2023-03-23T07:16:11;101038.25;;;10.94;80.78
46942;BME280;32676;52.630;4.896;2023-03-23T07:18:38;101033.84;;;10.95;80.54
46942;BME280;32676;52.630;4.896;2023-03-23T07:21:05;101037.31;;;10.97;80.78
46942;BME280;32676;52.630;4.896;2023-03-23T07:23:31;101053.09;;;10.97;80.78
46942;BME280;32676;52.630;4.896;2023-03-23T07:25:59;101052.97;;;11.00;80.78
46942;BME280;32676;52.630;4.896;2023-03-23T07:28:25;101073.94;;;11.03;80.84
46942;BME280;32676;52.630;4.896;2023-03-23T07:30:52;101070.41;;;11.04;80.52
46942;BME280;32676;52.630;4.896;2023-03-23T07:33:18;101079.13;;;11.06;80.87
46942;BME280;32676;52.630;4.896;2023-03-23T07:35:44;101094.78;;;11.09;80.85
46942;BME280;32676;52.630;4.896;2023-03-23T07:38:12;101086.06;;;11.07;80.83
46942;BME280;32676;52.630;4.896;2023-03-23T07:40:38;101091.25;;;11.10;80.75
46942;BME280;32676;52.630;4.896;2023-03-23T07:43:06;101110.41;;;11.16;80.70
46942;BME280;32676;52.630;4.896;2023-03-23T07:45:33;101134.78;;;11.21;80.46
46942;BME280;32676;52.630;4.896;2023-03-23T07:47:59;101148.75;;;11.23;80.30
46942;BME280;32676;52.630;4.896;2023-03-23T07:50:26;101168.75;;;11.28;79.73
46942;BME280;32676;52.630;4.896;2023-03-23T07:52:54;101185.31;;;11.32;79.78
46942;BME280;32676;52.630;4.896;2023-03-23T07:55:21;101209.72;;;11.37;79.70
46942;BME280;32676;52.630;4.896;2023-03-23T07:57:49;101231.47;;;11.42;79.11
46942;BME280;32676;52.630;4.896;2023-03-23T08:00:18;101243.69;;;11.45;79.29
46942;BME280;32676;52.630;4.896;2023-03-23T08:02:45;101272.41;;;11.52;79.43
46942;BME280;32676;52.630;4.896;2023-03-23T08:05:13;101280.22;;;11.56;79.15
46942;BME280;32676;52.630;4.896;2023-03-23T08:07:40;101288.91;;;11.59;79.12
46942;BME280;32676;52.630;4.896;2023-03-23T08:10:07;101313.38;;;11.63;79.14
46942;BME280;32676;52.630;4.896;2023-03-23T08:12:35;101343.88;;;11.70;78.93
46942;BME280;32676;52.630;4.896;2023-03-23T08:15:02;101366.56;;;11.74;78.55
46942;BME280;32676;52.630;4.896;2023-03-23T08:17:29;101380.47;;;11.79;78.12
46942;BME280;32676;52.630;4.896;2023-03-23T08:19:56;101402.19;;;11.86;78.20
46942;BME280;32676;52.630;4.896;2023-03-23T08:22:23;101455.41;;;11.99;77.68
46942;BME280;32676;52.630;4.896;2023-03-23T08:24:49;101492.16;;;12.05;77.46
46942;BME280;32676;52.630;4.896;2023-03-23T08:27:16;101500.88;;;12.07;77.14
46942;BME280;32676;52.630;4.896;2023-03-23T08:29:43;101515.63;;;12.13;76.80
46942;BME280;32676;52.630;4.896;2023-03-23T08:32:10;101544.50;;;12.17;76.34
46942;BME280;32676;52.630;4.896;2023-03-23T08:34:37;101574.13;;;12.25;76.41
46942;BME280;32676;52.630;4.896;2023-03-23T08:37:03;101607.31;;;12.33;76.43
46942;BME280;32676;52.630;4.896;2023-03-23T08:39:31;101645.69;;;12.43;76.36
46942;BME280;32676;52.630;4.896;2023-03-23T08:41:58;101664.00;;;12.47;76.38
46942;BME280;32676;52.630;4.896;2023-03-23T08:44:25;101682.34;;;12.52;76.13
46942;BME280;32676;52.630;4.896;2023-03-23T08:46:51;101699.81;;;12.56;75.69
46942;BME280;32676;52.630;4.896;2023-03-23T08:49:21;101712.00;;;12.60;75.31
46942;BME280;32676;52.630;4.896;2023-03-23T08:51:49;101746.09;;;12.68;75.10
46942;BME280;32676;52.630;4.896;2023-03-23T08:54:15;101760.06;;;12.72;74.86
46942;BME280;32676;52.630;4.896;2023-03-23T08:56:42;101769.69;;;12.73;74.62
46942;BME280;32676;52.630;4.896;2023-03-23T08:59:08;101759.16;;;12.73;74.00
46942;BME280;32676;52.630;4.896;2023-03-23T09:01:35;101765.28;;;12.73;73.89
46942;BME280;32676;52.630;4.896;2023-03-23T09:04:01;101784.53;;;12.77;73.73
46942;BME280;32676;52.630;4.896;2023-03-23T09:06:27;101781.03;;;12.76;73.83
46942;BME280;32676;52.630;4.896;2023-03-23T09:08:55;101785.38;;;12.79;73.83
46942;BME280;32676;52.630;4.896;2023-03-23T09:11:21;101781.91;;;12.77;73.67
46942;BME280;32676;52.630;4.896;2023-03-23T09:13:48;101795.84;;;12.82;73.29
46942;BME280;32676;52.630;4.896;2023-03-23T09:16:14;101817.72;;;12.85;73.71
46942;BME280;32676;52.630;4.896;2023-03-23T09:18:40;101832.53;;;12.91;73.55
46942;BME280;32676;52.630;4.896;2023-03-23T09:21:07;101843.84;;;12.95;73.98
46942;BME280;32676;52.630;4.896;2023-03-23T09:23:34;101851.75;;;12.96;73.86
46942;BME280;32676;52.630;4.896;2023-03-23T09:26:02;101856.13;;;12.97;73.50
46942;BME280;32676;52.630;4.896;2023-03-23T09:28:29;101884.97;;;13.03;73.18
46942;BME280;32676;52.630;4.896;2023-03-23T09:30:56;101895.47;;;13.06;73.09
46942;BME280;32676;52.630;4.896;2023-03-23T09:33:22;101907.66;;;13.11;73.41
46942;BME280;32676;52.630;4.896;2023-03-23T09:35:49;101916.41;;;13.13;73.61
46942;BME280;32676;52.630;4.896;2023-03-23T09:38:15;101933.88;;;13.17;73.12
46942;BME280;32676;52.630;4.896;2023-03-23T09:40:43;101942.66;;;13.19;73.12
46942;BME280;32676;52.630;4.896;2023-03-23T09:43:29;101962.75;;;13.24;73.06
46942;BME280;32676;52.630;4.896;2023-03-23T09:46:00;101963.63;;;13.25;73.06
46942;BME280;32676;52.630;4.896;2023-03-23T09:48:37;101965.31;;;13.26;72.74
46942;BME280;32676;52.630;4.896;2023-03-23T09:51:08;101975.81;;;13.29;72.66
46942;BME280;32676;52.630;4.896;2023-03-23T09:53:38;101975.81;;;13.29;72.36
46942;BME280;32676;52.630;4.896;2023-03-23T09:56:09;101977.56;;;13.30;71.98
46942;BME280;32676;52.630;4.896;2023-03-23T09:58:39;101995.09;;;13.34;71.89
46942;BME280;32676;52.630;4.896;2023-03-23T10:01:12;102007.28;;;13.38;71.95
46942;BME280;32676;52.630;4.896;2023-03-23T10:03:40;102002.94;;;13.37;71.51
46942;BME280;32676;52.630;4.896;2023-03-23T10:06:08;102014.31;;;13.39;71.44
46942;BME280;32676;52.630;4.896;2023-03-23T10:08:43;102042.31;;;13.47;71.14
46942;BME280;32676;52.630;4.896;2023-03-23T10:11:11;102055.41;;;13.50;70.95
46942;BME280;32676;52.630;4.896;2023-03-23T10:13:46;102064.13;;;13.53;71.23
46942;BME280;32676;52.630;4.896;2023-03-23T10:16:15;102051.88;;;13.51;71.00
46942;BME280;32676;52.630;4.896;2023-03-23T10:18:45;102066.84;;;13.52;70.73
46942;BME280;32676;52.630;4.896;2023-03-23T10:21:14;102046.63;;;13.49;70.91
46942;BME280;32676;52.630;4.896;2023-03-23T10:23:52;102056.28;;;13.52;71.30
46942;BME280;32676;52.630;4.896;2023-03-23T10:29:16;102026.47;;;13.47;71.17
46942;BME280;32676;52.630;4.896;2023-03-23T10:31:45;102026.47;;;13.47;70.90
46942;BME280;32676;52.630;4.896;2023-03-23T10:34:13;102042.22;;;13.50;70.86
46942;BME280;32676;52.630;4.896;2023-03-23T10:36:48;102064.94;;;13.57;70.74
46942;BME280;32676;52.630;4.896;2023-03-23T10:39:17;102103.47;;;13.64;70.33
46942;BME280;32676;52.630;4.896;2023-03-23T10:41:44;102114.81;;;13.69;69.85
46942;BME280;32676;52.630;4.896;2023-03-23T10:44:11;102127.09;;;13.72;69.76
46942;BME280;32676;52.630;4.896;2023-03-23T10:46:40;102145.47;;;13.76;69.66
46942;BME280;32676;52.630;4.896;2023-03-23T10:49:12;102161.22;;;13.81;69.82
46942;BME280;32676;52.630;4.896;2023-03-23T10:51:42;102180.50;;;13.85;69.73
46942;BME280;32676;52.630;4.896;2023-03-23T10:54:09;102170.78;;;13.85;69.69
46942;BME280;32676;52.630;4.896;2023-03-23T10:56:37;102185.69;;;13.88;69.41
46942;BME280;32676;52.630;4.896;2023-03-23T10:59:11;102220.81;;;13.93;69.11
46942;BME280;32676;52.630;4.896;2023-03-23T11:01:37;102247.09;;;13.99;69.39
46942;BME280;32676;52.630;4.896;2023-03-23T11:04:11;102263.69;;;14.04;69.33
46942;BME280;32676;52.630;4.896;2023-03-23T11:06:38;102269.75;;;14.09;69.34
46942;BME280;32676;52.630;4.896;2023-03-23T11:09:10;102275.03;;;14.09;69.30
46942;BME280;32676;52.630;4.896;2023-03-23T11:11:38;102276.78;;;14.10;69.04
46942;BME280;32676;52.630;4.896;2023-03-23T11:14:16;102281.97;;;14.13;69.18
46942;BME280;32676;52.630;4.896;2023-03-23T11:16:43;102307.44;;;14.19;69.00
46942;BME280;32676;52.630;4.896;2023-03-23T11:19:13;102285.47;;;14.15;68.77
46942;BME280;32676;52.630;4.896;2023-03-23T11:21:40;102267.09;;;14.09;68.58
46942;BME280;32676;52.630;4.896;2023-03-23T11:24:07;102253.97;;;14.06;68.58
46942;BME280;32676;52.630;4.896;2023-03-23T11:26:34;102239.88;;;14.06;68.62
46942;BME280;32676;52.630;4.896;2023-03-23T11:29:03;102259.19;;;14.09;68.40
46942;BME280;32676;52.630;4.896;2023-03-23T11:31:30;102250.41;;;14.07;68.32
46942;BME280;32676;52.630;4.896;2023-03-23T11:33:58;102284.59;;;14.15;68.47
46942;BME280;32676;52.630;4.896;2023-03-23T11:36:31;102301.19;;;14.21;68.15
46942;BME280;32676;52.630;4.896;2023-03-23T11:38:59;102341.56;;;14.30;67.41
46942;BME280;32676;52.630;4.896;2023-03-23T11:41:28;102347.59;;;14.33;67.62
46942;BME280;32676;52.630;4.896;2023-03-23T11:43:55;102365.16;;;14.37;66.69
46942;BME280;32676;52.630;4.896;2023-03-23T11:46:25;102369.50;;;14.40;66.65
46942;BME280;32676;52.630;4.896;2023-03-23T11:48:57;102369.50;;;14.40;66.68
46942;BME280;32676;52.630;4.896;2023-03-23T11:51:26;102395.81;;;14.46;67.20
46942;BME280;32676;52.630;4.896;2023-03-23T11:53:57;102406.34;;;14.48;67.39
46942;BME280;32676;52.630;4.896;2023-03-23T11:56:26;102399.28;;;14.48;67.39
46942;BME280;32676;52.630;4.896;2023-03-23T11:58:54;102408.94;;;14.49;67.87
46942;BME280;32676;52.630;4.896;2023-03-23T12:01:24;102420.31;;;14.54;67.69
46942;BME280;32676;52.630;4.896;2023-03-23T12:03:58;102438.78;;;14.57;67.52
46942;BME280;32676;52.630;4.896;2023-03-23T12:06:29;102429.06;;;14.56;67.26
46942;BME280;32676;52.630;4.896;2023-03-23T12:09:02;102414.16;;;14.54;66.94
46942;BME280;32676;52.630;4.896;2023-03-23T12:11:33;102380.84;;;14.45;66.63
46942;BME280;32676;52.630;4.896;2023-03-23T12:14:06;102365.88;;;14.44;66.53
46942;BME280;32676;52.630;4.896;2023-03-23T12:16:43;102390.44;;;14.49;66.78
46942;BME280;32676;52.630;4.896;2023-03-23T12:19:16;102420.28;;;14.57;67.02
46942;BME280;32676;52.630;4.896;2023-03-23T12:21:47;102416.75;;;14.55;67.25
46942;BME280;32676;52.630;4.896;2023-03-23T12:24:22;102427.28;;;14.58;67.50
46942;BME280;32676;52.630;4.896;2023-03-23T12:26:53;102430.75;;;14.61;66.99
46942;BME280;32676;52.630;4.896;2023-03-23T12:29:30;102441.28;;;14.64;66.79
46942;BME280;32676;52.630;4.896;2023-03-23T12:32:05;102466.72;;;14.69;66.49
46942;BME280;32676;52.630;4.896;2023-03-23T12:34:38;102443.03;;;14.65;66.39
46942;BME280;32676;52.630;4.896;2023-03-23T12:37:13;102452.63;;;14.69;66.32
46942;BME280;32676;52.630;4.896;2023-03-23T12:39:59;102460.56;;;14.69;66.33
46942;BME280;32676;52.630;4.896;2023-03-23T12:42:33;102487.72;;;14.77;66.17
46942;BME280;32676;52.630;4.896;2023-03-23T12:45:05;102519.31;;;14.85;66.12
46942;BME280;32676;52.630;4.896;2023-03-23T12:47:35;102490.31;;;14.78;65.79
46942;BME280;32676;52.630;4.896;2023-03-23T12:50:03;102502.63;;;14.81;66.28
46942;BME280;32676;52.630;4.896;2023-03-23T12:52:35;102492.06;;;14.80;65.81
46942;BME280;32676;52.630;4.896;2023-03-23T12:55:07;102490.28;;;14.80;65.41
46942;BME280;32676;52.630;4.896;2023-03-23T12:57:41;102514.00;;;14.86;65.49
46942;BME280;32676;52.630;4.896;2023-03-23T13:00:13;102511.34;;;14.86;65.04
46942;BME280;32676;52.630;4.896;2023-03-23T13:02:41;102488.47;;;14.82;64.70
46942;BME280;32676;52.630;4.896;2023-03-23T13:05:09;102488.47;;;14.82;64.81
46942;BME280;32676;52.630;4.896;2023-03-23T13:07:40;102457.72;;;14.76;65.19
46942;BME280;32676;52.630;4.896;2023-03-23T13:10:13;102442.81;;;14.74;64.99